createdAt,value
2018-05-16T09:03:15.761Z,175
2018-05-16T09:03:47.878Z,180
2018-05-16T09:04:19.953Z,180
2018-05-16T09:04:52.052Z,180
2018-05-16T09:05:25.792Z,180
2018-05-16T09:05:57.933Z,180
2018-05-16T09:07:49.409Z,190
2018-05-16T09:08:21.508Z,190
2018-05-16T09:08:53.590Z,190
2018-05-16T09:09:25.823Z,185
2018-05-16T09:09:57.895Z,185
2018-05-16T09:10:30.143Z,185
2018-05-16T09:11:02.182Z,185
2018-05-16T09:11:34.326Z,180
2018-05-16T09:12:06.395Z,185
2018-05-16T09:12:38.469Z,185
2018-05-16T09:13:12.309Z,185
2018-05-16T09:13:44.411Z,185
2018-05-16T09:14:16.493Z,185
2018-05-16T09:14:48.663Z,180
2018-05-16T09:15:20.752Z,185
2018-05-16T09:15:52.743Z,185
2018-05-16T09:16:24.798Z,185
2018-05-16T09:16:56.884Z,200
2018-05-16T09:17:28.995Z,190
2018-05-16T09:18:01.092Z,185
2018-05-16T09:18:33.179Z,190
2018-05-16T09:19:05.272Z,200
2018-05-16T09:19:37.393Z,180
2018-05-16T09:20:09.469Z,190
2018-05-16T09:22:00.907Z,190
2018-05-16T09:22:33.023Z,185
2018-05-16T09:23:05.107Z,180
2018-05-16T09:23:37.190Z,185
2018-05-16T09:24:09.254Z,180
2018-05-16T09:24:41.364Z,180
2018-05-16T09:26:33.012Z,175
2018-05-16T09:27:05.095Z,175
2018-05-16T09:27:37.197Z,170
2018-05-16T09:28:09.292Z,170
2018-05-16T09:28:41.384Z,170
2018-05-16T09:29:13.483Z,170
2018-05-16T09:29:45.577Z,170
2018-05-16T09:30:17.658Z,180
2018-05-16T09:30:49.753Z,175
2018-05-16T09:31:21.841Z,175
2018-05-16T09:31:53.941Z,195
2018-05-16T09:32:26.032Z,180
2018-05-16T09:32:58.108Z,180
2018-05-16T09:33:30.210Z,200
2018-05-16T09:34:02.314Z,195
2018-05-16T09:34:34.402Z,200
2018-05-16T09:36:25.934Z,195
2018-05-16T09:36:58.009Z,185
2018-05-16T09:37:30.106Z,185
2018-05-16T09:38:02.188Z,185
2018-05-16T09:38:34.278Z,185
2018-05-16T09:40:26.013Z,215
2018-05-16T09:40:58.032Z,190
2018-05-16T09:41:30.148Z,220
2018-05-16T09:42:02.235Z,215
2018-05-16T09:42:34.323Z,190
2018-05-16T09:43:06.438Z,190
2018-05-16T09:43:38.560Z,220
2018-05-16T09:44:10.668Z,205
2018-05-16T09:44:42.736Z,205
2018-05-16T09:45:14.817Z,225
2018-05-16T09:45:46.938Z,240
2018-05-16T09:46:19.001Z,245
2018-05-16T09:46:51.075Z,245
2018-05-16T09:47:23.172Z,235
2018-05-16T09:47:55.261Z,220
2018-05-16T09:48:27.365Z,245
2018-05-16T09:50:18.779Z,240
2018-05-16T09:50:50.885Z,235
2018-05-16T09:51:23.000Z,230
2018-05-16T09:51:55.023Z,210
2018-05-16T09:52:27.111Z,220
2018-05-16T09:52:59.176Z,205
2018-05-16T09:53:31.250Z,225
2018-05-16T09:54:03.334Z,215
2018-05-16T09:54:35.427Z,215
2018-05-16T09:55:07.515Z,215
2018-05-16T09:55:39.654Z,215
2018-05-16T09:56:12.020Z,210
2018-05-16T09:56:44.388Z,210
2018-05-16T09:57:16.547Z,210
2018-05-16T09:57:48.712Z,210
2018-05-16T09:59:40.371Z,215
2018-05-16T10:00:12.437Z,215
2018-05-16T10:02:04.203Z,215
2018-05-16T10:02:36.301Z,210
2018-05-16T10:03:08.406Z,215
2018-05-16T10:03:40.474Z,215
2018-05-16T10:04:12.577Z,220
2018-05-16T10:06:04.203Z,215
2018-05-16T10:07:55.811Z,195
2018-05-16T10:08:27.933Z,195
2018-05-16T10:09:00.028Z,200
2018-05-16T10:09:32.107Z,200
2018-05-16T10:10:04.208Z,210
2018-05-16T10:10:36.296Z,205
2018-05-16T10:11:08.383Z,210
2018-05-16T10:11:40.484Z,205
2018-05-16T10:12:12.585Z,205
2018-05-16T10:12:44.689Z,205
2018-05-16T10:13:16.840Z,205
2018-05-16T10:13:48.938Z,200
2018-05-16T10:15:40.756Z,205
2018-05-16T10:17:32.206Z,200
2018-05-16T10:18:04.313Z,200
2018-05-16T10:19:55.832Z,195
2018-05-16T10:20:27.906Z,185
2018-05-16T10:20:59.997Z,185
2018-05-16T10:21:32.093Z,195
2018-05-16T10:22:04.192Z,195
2018-05-16T10:22:36.281Z,185
2018-05-16T10:23:08.389Z,185
2018-05-16T10:23:40.570Z,180
2018-05-16T10:24:12.552Z,180
2018-05-16T10:24:44.679Z,180
2018-05-16T10:25:16.790Z,180
2018-05-16T10:27:08.304Z,190
2018-05-16T10:27:40.417Z,200
2018-05-16T10:28:12.517Z,200
2018-05-16T10:28:44.626Z,195
2018-05-16T10:29:16.717Z,210
2018-05-16T10:29:48.851Z,220
2018-05-16T10:31:40.542Z,240
2018-05-16T10:32:12.621Z,245
2018-05-16T10:32:44.682Z,250
2018-05-16T10:33:16.786Z,250
2018-05-16T10:33:48.889Z,250
2018-05-16T10:34:21.006Z,250
2018-05-16T10:34:53.111Z,250
2018-05-16T10:35:25.204Z,250
2018-05-16T10:35:57.273Z,245
2018-05-16T10:36:29.357Z,235
2018-05-16T10:37:01.400Z,250
2018-05-16T10:37:33.559Z,250
2018-05-16T10:38:05.649Z,250
2018-05-16T10:38:37.728Z,250
2018-05-16T10:39:09.813Z,250
2018-05-16T10:39:41.921Z,250
2018-05-16T10:40:14.016Z,250
2018-05-16T10:40:46.110Z,250
2018-05-16T10:41:18.190Z,250
2018-05-16T10:41:50.308Z,250
2018-05-16T10:42:22.403Z,250
2018-05-16T10:42:54.509Z,255
2018-05-16T10:46:05.935Z,250
2018-05-16T10:46:38.026Z,250
2018-05-16T10:47:10.121Z,250
2018-05-16T10:47:42.241Z,255
2018-05-16T10:48:14.341Z,255
2018-05-16T10:50:06.074Z,255
2018-05-16T10:50:38.132Z,255
2018-05-16T10:52:29.484Z,240
2018-05-16T10:53:01.621Z,250
2018-05-16T10:53:33.713Z,255
2018-05-16T10:54:05.821Z,255
2018-05-16T10:54:37.912Z,260
2018-05-16T10:55:10.004Z,255
2018-05-16T10:55:42.094Z,255
2018-05-16T10:56:14.197Z,250
2018-05-16T10:56:46.298Z,250
2018-05-16T10:57:18.414Z,250
2018-05-16T10:57:50.460Z,250
2018-05-16T10:59:41.903Z,240
2018-05-16T11:00:13.995Z,240
2018-05-16T11:00:46.109Z,245
2018-05-16T11:01:18.220Z,245
2018-05-16T11:01:50.318Z,245
2018-05-16T11:02:22.417Z,245
2018-05-16T11:02:54.530Z,245
2018-05-16T11:03:26.912Z,245
2018-05-16T11:03:58.816Z,250
2018-05-16T11:04:30.893Z,250
2018-05-16T11:05:03.052Z,255
2018-05-16T11:05:35.153Z,255
2018-05-16T11:07:26.984Z,255
2018-05-16T11:09:18.780Z,260
2018-05-16T11:09:51.023Z,260
2018-05-16T11:10:23.160Z,260
2018-05-16T11:10:55.281Z,260
2018-05-16T11:11:27.380Z,260
2018-05-16T11:11:59.476Z,260
2018-05-16T11:12:31.581Z,245
2018-05-16T11:13:03.686Z,240
2018-05-16T11:14:55.343Z,235
2018-05-16T11:15:27.435Z,235
2018-05-16T11:15:59.508Z,235
2018-05-16T11:16:31.592Z,240
2018-05-16T11:17:03.683Z,250
2018-05-16T11:17:35.766Z,260
2018-05-16T11:18:07.870Z,275
2018-05-16T11:18:39.965Z,285
2018-05-16T11:19:12.052Z,270
2018-05-16T11:19:44.170Z,270
2018-05-16T11:20:16.257Z,295
2018-05-16T11:20:48.423Z,265
2018-05-16T11:21:20.567Z,260
2018-05-16T11:23:12.099Z,250
2018-05-16T11:23:44.207Z,265
2018-05-16T11:24:16.254Z,270
2018-05-16T11:24:48.329Z,255
2018-05-16T11:25:20.409Z,275
2018-05-16T11:25:52.503Z,260
2018-05-16T11:26:24.590Z,245
2018-05-16T11:26:56.678Z,245
2018-05-16T11:27:28.765Z,260
2018-05-16T11:28:00.828Z,275
2018-05-16T11:28:32.932Z,280
2018-05-16T11:29:05.028Z,285
2018-05-16T11:29:37.149Z,305
2018-05-16T11:30:09.238Z,275
2018-05-16T11:30:41.329Z,260
2018-05-16T11:31:13.392Z,260
2018-05-16T11:31:45.540Z,250
2018-05-16T11:32:17.650Z,255
2018-05-16T11:32:49.729Z,245
2018-05-16T11:33:21.825Z,245
2018-05-16T11:33:53.922Z,235
2018-05-16T11:35:45.356Z,215
2018-05-16T11:36:17.453Z,210
2018-05-16T11:36:49.529Z,205
2018-05-16T11:37:21.635Z,200
2018-05-16T11:40:32.606Z,225
2018-05-16T11:41:04.710Z,225
2018-05-16T11:41:36.786Z,225
2018-05-16T11:42:08.878Z,225
2018-05-16T11:42:40.975Z,240
2018-05-16T11:44:32.370Z,270
2018-05-16T11:45:04.457Z,280
2018-05-16T11:45:36.577Z,275
2018-05-16T11:46:08.677Z,260
2018-05-16T11:46:40.809Z,260
2018-05-16T11:47:12.890Z,260
2018-05-16T11:47:44.998Z,260
2018-05-16T11:48:17.299Z,275
2018-05-16T11:50:08.939Z,300
2018-05-16T11:50:41.055Z,300
2018-05-16T11:51:13.151Z,280
2018-05-16T11:51:45.253Z,255
2018-05-16T11:52:17.330Z,295
2018-05-16T11:52:49.437Z,270
2018-05-16T11:53:21.517Z,270
2018-05-16T11:53:53.601Z,235
2018-05-16T11:54:25.693Z,260
2018-05-16T11:54:57.751Z,240
2018-05-16T11:55:29.847Z,235
2018-05-16T11:56:01.963Z,245
2018-05-16T11:56:34.051Z,265
2018-05-16T11:57:06.151Z,245
2018-05-16T11:58:57.626Z,230
2018-05-16T11:59:29.736Z,235
2018-05-16T12:00:01.814Z,225
2018-05-16T12:00:33.921Z,195
2018-05-16T12:01:06.010Z,185
2018-05-16T12:01:38.136Z,180
2018-05-16T12:02:10.234Z,170
2018-05-16T12:04:01.884Z,160
2018-05-16T12:04:33.972Z,160
2018-05-16T12:05:06.077Z,170
2018-05-16T12:05:38.178Z,170
2018-05-16T12:06:10.265Z,170
2018-05-16T12:06:42.355Z,170
2018-05-16T12:07:14.448Z,170
2018-05-16T12:07:46.561Z,175
2018-05-16T12:08:18.644Z,175
2018-05-16T12:08:50.715Z,175
2018-05-16T12:09:22.795Z,175
2018-05-16T12:09:54.901Z,175
2018-05-16T12:10:27.002Z,175
2018-05-16T12:12:18.303Z,225
2018-05-16T12:12:50.418Z,240
2018-05-16T12:14:42.195Z,200
2018-05-16T12:15:14.156Z,205
2018-05-16T12:15:46.243Z,205
2018-05-16T12:16:18.341Z,205
2018-05-16T12:16:50.733Z,215
2018-05-16T12:17:22.828Z,220
2018-05-16T12:19:14.324Z,205
2018-05-16T12:19:46.408Z,210
2018-05-16T12:20:18.579Z,210
2018-05-16T12:20:52.526Z,210
2018-05-16T12:21:26.226Z,205
2018-05-16T12:21:58.338Z,200
2018-05-16T12:23:50.232Z,210
2018-05-16T12:24:22.398Z,215
2018-05-16T12:26:15.071Z,230
2018-05-16T12:26:47.851Z,425
2018-05-16T12:27:19.958Z,430
2018-05-16T12:27:52.075Z,295
2018-05-16T12:28:24.169Z,370
2018-05-16T12:28:56.329Z,460
2018-05-16T12:29:28.359Z,475
2018-05-16T12:30:00.481Z,495
2018-05-16T12:30:32.593Z,335
2018-05-16T12:31:04.685Z,315
2018-05-16T12:31:36.775Z,295
2018-05-16T12:32:08.872Z,310
2018-05-16T12:32:40.978Z,515
2018-05-16T12:33:13.137Z,555
2018-05-16T12:33:45.369Z,570
2018-05-16T12:34:17.436Z,590
2018-05-16T12:36:09.083Z,315
2018-05-16T12:39:20.187Z,245
2018-05-16T12:39:52.279Z,245
2018-05-16T12:40:24.369Z,250
2018-05-16T12:40:56.446Z,245
2018-05-16T12:42:47.904Z,250
2018-05-16T12:43:19.987Z,290
2018-05-16T12:45:11.665Z,595
2018-05-16T12:45:43.818Z,610
2018-05-16T12:46:15.972Z,600
2018-05-16T12:46:48.053Z,570
2018-05-16T12:47:20.233Z,580
2018-05-16T12:47:52.395Z,610
2018-05-16T12:49:44.169Z,665
2018-05-16T12:50:16.273Z,625
2018-05-16T12:50:48.371Z,640
2018-05-16T12:51:20.545Z,655
2018-05-16T12:51:52.642Z,695
2018-05-16T12:53:44.364Z,590
2018-05-16T12:55:35.941Z,385
2018-05-16T12:56:08.027Z,280
2018-05-16T12:56:40.111Z,260
2018-05-16T12:57:12.182Z,245
2018-05-16T12:57:44.262Z,255
2018-05-16T12:58:16.352Z,270
2018-05-16T12:58:48.447Z,260
2018-05-16T12:59:20.558Z,290
2018-05-16T12:59:52.640Z,710
2018-05-16T13:00:24.731Z,580
2018-05-16T13:02:16.508Z,745
2018-05-16T13:02:48.602Z,735
2018-05-16T13:03:20.684Z,750
2018-05-16T13:05:12.098Z,405
2018-05-16T13:05:44.179Z,550
2018-05-16T13:07:35.871Z,710
2018-05-16T13:08:07.960Z,705
2018-05-16T13:10:00.376Z,585
2018-05-16T13:10:32.481Z,710
2018-05-16T13:12:23.935Z,755
2018-05-16T13:14:15.366Z,780
2018-05-16T13:14:47.451Z,725
2018-05-16T13:15:19.551Z,470
2018-05-16T13:15:51.678Z,305
2018-05-16T13:17:43.029Z,675
2018-05-16T13:18:15.113Z,550
2018-05-16T13:18:47.224Z,585
2018-05-16T13:20:39.008Z,760
2018-05-16T13:21:11.122Z,720
2018-05-16T13:21:43.339Z,720
2018-05-16T13:22:15.327Z,530
2018-05-16T13:22:47.427Z,355
2018-05-16T13:24:38.892Z,740
2018-05-16T13:25:10.975Z,720
2018-05-16T13:25:43.062Z,815
2018-05-16T13:27:34.472Z,315
2018-05-16T13:29:26.026Z,205
2018-05-16T13:43:24.363Z,25
2018-05-16T13:43:56.457Z,25
2018-05-16T13:44:28.558Z,25
2018-05-16T13:45:00.669Z,25
2018-05-16T13:45:32.755Z,25
2018-05-16T13:46:04.867Z,25
2018-05-16T13:46:36.958Z,25
2018-05-16T13:47:09.048Z,25
2018-05-16T13:47:41.148Z,25
2018-05-16T13:48:13.258Z,25
2018-05-16T13:51:24.722Z,20
2018-05-16T13:51:56.804Z,15
2018-05-16T13:52:28.899Z,15
2018-05-16T13:53:01.002Z,15
2018-05-16T13:53:33.128Z,15
2018-05-16T13:54:05.170Z,15
2018-05-16T13:54:37.255Z,15
2018-05-16T13:55:09.352Z,20
2018-05-16T13:55:41.463Z,20
2018-05-16T13:56:13.561Z,20
2018-05-16T13:58:05.221Z,25
2018-05-16T13:58:37.310Z,30
2018-05-16T13:59:09.408Z,30
2018-05-16T13:59:41.515Z,30
2018-05-16T14:00:13.715Z,30
2018-05-16T14:00:45.728Z,30
2018-05-16T14:01:17.828Z,35
2018-05-16T14:01:49.930Z,35
2018-05-16T14:03:41.489Z,35
2018-05-16T14:04:13.578Z,40
2018-05-16T14:04:45.658Z,40
2018-05-16T14:05:17.740Z,45
2018-05-16T14:08:28.961Z,65
2018-05-16T14:09:01.065Z,70
2018-05-16T14:09:33.160Z,75
2018-05-16T14:10:05.255Z,70
2018-05-16T14:10:37.353Z,70
2018-05-16T14:12:29.150Z,60
2018-05-16T14:13:01.238Z,60
2018-05-16T14:13:33.298Z,55
2018-05-16T14:15:24.752Z,50
2018-05-16T14:15:57.008Z,50
2018-05-16T14:16:29.114Z,55
2018-05-16T14:17:01.195Z,55
2018-05-16T14:17:33.305Z,55
2018-05-16T14:18:05.405Z,55
2018-05-16T14:18:37.464Z,60
2018-05-16T14:19:09.557Z,65
2018-05-16T14:21:00.917Z,135
2018-05-16T14:21:33.008Z,560
2018-05-16T14:22:05.100Z,525
2018-05-16T14:22:37.217Z,250
2018-05-16T14:23:09.323Z,320
2018-05-16T14:23:41.411Z,270
2018-05-16T14:24:13.507Z,200
2018-05-16T14:24:45.581Z,200
2018-05-16T14:25:17.680Z,160
2018-05-16T14:25:49.775Z,250
2018-05-16T14:26:21.879Z,130
2018-05-16T14:26:53.971Z,100
2018-05-16T14:27:26.061Z,85
2018-05-16T14:29:17.498Z,70
2018-05-16T14:29:49.594Z,65
2018-05-16T14:30:21.706Z,60
2018-05-16T14:30:53.788Z,60
2018-05-16T14:31:25.876Z,60
2018-05-16T14:31:57.966Z,60
2018-05-16T14:32:30.073Z,60
2018-05-16T14:33:02.138Z,65
2018-05-16T14:33:34.243Z,70
2018-05-16T14:34:06.335Z,80
2018-05-16T14:34:38.428Z,90
2018-05-16T14:35:10.530Z,95
2018-05-16T14:35:42.619Z,100
2018-05-16T14:36:14.787Z,105
2018-05-16T14:36:46.796Z,105
2018-05-16T14:37:18.897Z,275
2018-05-16T14:37:50.997Z,160
2018-05-16T14:39:42.585Z,150
2018-05-16T14:40:14.698Z,150
2018-05-16T14:40:46.795Z,285
2018-05-16T14:41:18.888Z,270
2018-05-16T14:41:51.029Z,385
2018-05-16T14:43:42.753Z,125
2018-05-16T14:44:14.842Z,105
2018-05-16T14:46:06.440Z,85
2018-05-16T14:47:58.181Z,635
2018-05-16T14:48:30.378Z,1295
2018-05-16T14:50:22.015Z,1250
2018-05-16T14:50:54.122Z,1320
2018-05-16T14:52:45.596Z,305
2018-05-16T14:53:17.692Z,320
2018-05-16T14:53:49.779Z,275
2018-05-16T14:54:21.853Z,210
2018-05-16T14:54:53.963Z,185
2018-05-16T14:55:26.105Z,175
2018-05-16T14:55:58.172Z,175
2018-05-16T14:56:30.266Z,200
2018-05-16T14:57:02.354Z,195
2018-05-16T14:57:34.454Z,220
2018-05-16T14:58:06.546Z,215
2018-05-16T14:59:58.090Z,170
2018-05-16T15:00:30.212Z,155
2018-05-16T15:01:02.329Z,145
2018-05-16T15:01:34.418Z,135
2018-05-16T15:02:06.525Z,130
2018-05-16T15:02:38.591Z,130
2018-05-16T15:03:10.674Z,125
2018-05-16T15:03:42.784Z,125
2018-05-16T15:05:34.444Z,120
2018-05-16T15:06:06.529Z,120
2018-05-16T15:06:38.633Z,120
2018-05-16T15:08:29.954Z,145
2018-05-16T15:09:02.055Z,190
2018-05-16T15:09:34.122Z,345
2018-05-16T15:10:06.218Z,750
2018-05-16T15:11:57.784Z,745
2018-05-16T15:12:29.864Z,905
2018-05-16T15:13:01.952Z,905
2018-05-16T15:13:34.029Z,1115
2018-05-16T15:15:25.791Z,1115
2018-05-16T15:15:57.873Z,1130
2018-05-16T15:16:29.989Z,615
2018-05-16T15:17:02.062Z,590
2018-05-16T15:17:34.170Z,1035
2018-05-16T15:19:25.620Z,335
2018-05-16T15:19:57.715Z,240
2018-05-16T15:20:29.814Z,205
2018-05-16T15:21:01.911Z,175
2018-05-16T15:21:34.003Z,145
2018-05-16T15:22:06.107Z,125
2018-05-16T15:22:38.207Z,110
2018-05-16T15:23:10.302Z,105
2018-05-16T15:23:42.427Z,115
2018-05-16T15:24:14.502Z,205
2018-05-16T15:24:46.571Z,95
2018-05-16T15:25:18.672Z,80
2018-05-16T15:25:50.769Z,70
2018-05-16T15:26:22.871Z,60
2018-05-16T15:26:54.962Z,55
2018-05-16T15:27:27.232Z,50
2018-05-16T15:27:59.152Z,45
2018-05-16T15:28:31.264Z,40
2018-05-16T15:29:03.342Z,40
2018-05-16T15:29:35.409Z,35
2018-05-16T15:30:07.503Z,35
2018-05-16T15:30:39.628Z,35
2018-05-16T15:31:11.725Z,30
2018-05-16T15:31:43.833Z,30
2018-05-16T15:32:15.951Z,35
2018-05-16T15:32:48.053Z,35
2018-05-16T15:33:20.144Z,30
2018-05-16T15:36:31.212Z,30
2018-05-16T15:37:03.283Z,30
2018-05-16T15:37:35.376Z,30
2018-05-16T15:39:26.805Z,35
2018-05-16T15:39:58.904Z,40
2018-05-16T15:40:30.987Z,45
2018-05-16T15:41:03.063Z,45
2018-05-16T15:41:35.180Z,50
2018-05-16T15:42:07.288Z,50
2018-05-16T15:42:39.382Z,55
2018-05-16T15:44:30.989Z,55
2018-05-16T15:45:03.072Z,55
2018-05-16T15:45:35.139Z,55
2018-05-16T15:46:07.227Z,55
2018-05-16T15:46:39.352Z,55
2018-05-16T15:47:11.426Z,50
2018-05-16T15:47:43.524Z,50
2018-05-16T15:49:35.063Z,45
2018-05-16T15:50:07.150Z,45
2018-05-16T15:50:39.246Z,45
2018-05-16T15:52:30.577Z,50
2018-05-16T15:53:02.675Z,50
2018-05-16T15:53:34.781Z,45
2018-05-16T15:55:26.493Z,40
2018-05-16T15:55:58.619Z,35
2018-05-16T15:56:30.724Z,35
2018-05-16T15:57:02.795Z,30
2018-05-16T15:57:34.900Z,30
2018-05-16T15:58:06.980Z,30
2018-05-16T15:58:39.079Z,25
2018-05-16T15:59:11.189Z,25
2018-05-16T15:59:43.353Z,25
2018-05-16T16:00:15.395Z,25
2018-05-16T16:00:47.474Z,20
2018-05-16T16:01:19.560Z,20
2018-05-16T16:01:51.668Z,20
2018-05-16T16:02:23.723Z,20
2018-05-16T16:04:15.149Z,10
2018-05-16T16:06:06.549Z,10
2018-05-16T16:06:38.655Z,10
2018-05-16T16:07:10.765Z,10
2018-05-16T16:07:42.880Z,10
2018-05-16T16:08:14.998Z,10
2018-05-16T16:08:47.077Z,10
2018-05-16T16:09:19.181Z,15
2018-05-16T16:09:51.276Z,15
2018-05-16T16:10:23.367Z,15
2018-05-16T16:10:55.462Z,15
2018-05-16T16:11:27.544Z,15
2018-05-16T16:11:59.625Z,15
2018-05-16T16:12:31.719Z,15
2018-05-16T16:13:03.820Z,10
2018-05-16T16:13:35.909Z,10
2018-05-16T16:14:08.003Z,10
2018-05-16T16:14:40.089Z,10
2018-05-16T16:16:31.737Z,15
2018-05-16T16:18:23.521Z,15
2018-05-16T16:18:55.623Z,15
2018-05-16T16:19:27.727Z,20
2018-05-16T16:19:59.811Z,20
2018-05-16T16:20:31.907Z,20
2018-05-16T16:21:04.001Z,25
2018-05-16T16:21:36.071Z,25
2018-05-16T16:22:08.189Z,30
2018-05-16T16:22:40.274Z,30
2018-05-16T16:23:12.375Z,30
2018-05-16T16:23:44.466Z,35
2018-05-16T16:24:16.570Z,35
2018-05-16T16:26:08.008Z,40
2018-05-16T16:26:40.089Z,45
2018-05-16T16:29:51.251Z,50
2018-05-16T16:30:23.312Z,50
2018-05-16T16:30:55.417Z,50
2018-05-16T16:31:27.579Z,55
2018-05-16T16:31:59.598Z,60
2018-05-16T16:32:31.692Z,65
2018-05-16T16:33:03.791Z,70
2018-05-16T16:33:35.866Z,75
2018-05-16T16:34:07.920Z,80
2018-05-16T16:35:59.338Z,100
2018-05-16T16:36:31.426Z,105
2018-05-16T16:37:03.521Z,105
2018-05-16T16:37:35.623Z,110
2018-05-16T16:38:07.724Z,105
2018-05-16T16:38:39.824Z,105
2018-05-16T16:39:12.007Z,110
2018-05-16T16:39:44.013Z,110
2018-05-16T16:40:16.103Z,115
2018-05-16T16:40:48.206Z,115
2018-05-16T16:41:20.304Z,115
2018-05-16T16:41:52.411Z,115
2018-05-16T16:42:24.500Z,115
2018-05-16T16:42:56.575Z,115
2018-05-16T16:43:28.661Z,115
2018-05-16T16:44:00.783Z,115
2018-05-16T16:44:32.875Z,115
2018-05-16T16:45:04.967Z,115
2018-05-16T16:45:37.055Z,115
2018-05-16T16:46:09.118Z,115
2018-05-16T16:48:00.852Z,120
2018-05-16T16:48:32.965Z,120
2018-05-16T16:49:05.064Z,120
2018-05-16T16:49:37.168Z,120
2018-05-16T16:50:09.365Z,120
2018-05-16T16:50:41.366Z,120
2018-05-16T16:51:13.466Z,115
2018-05-16T16:51:45.559Z,115
2018-05-16T16:52:17.637Z,115
2018-05-16T16:55:28.686Z,115
2018-05-16T16:56:00.779Z,115
2018-05-16T16:56:32.864Z,115
2018-05-16T16:58:24.529Z,115
2018-05-16T16:58:56.638Z,115
2018-05-16T16:59:28.741Z,115
2018-05-16T17:00:00.837Z,115
2018-05-16T17:00:32.940Z,115
2018-05-16T17:01:05.030Z,115
2018-05-16T17:01:37.134Z,115
2018-05-16T17:02:09.239Z,115
2018-05-16T17:04:00.701Z,115
2018-05-16T17:04:32.844Z,115
2018-05-16T17:05:04.907Z,110
2018-05-16T17:06:56.276Z,105
2018-05-16T17:07:28.393Z,105
2018-05-16T17:08:00.476Z,105
2018-05-16T17:08:32.577Z,105
2018-05-16T17:09:04.675Z,100
2018-05-16T17:09:36.760Z,100
2018-05-16T17:10:08.845Z,100
2018-05-16T17:10:40.927Z,100
2018-05-16T17:11:12.994Z,100
2018-05-16T17:13:04.681Z,95
2018-05-16T17:13:36.773Z,95
2018-05-16T17:14:08.856Z,95
2018-05-16T17:16:00.539Z,90
2018-05-16T17:16:32.644Z,90
2018-05-16T17:17:04.733Z,90
2018-05-16T17:17:36.823Z,85
2018-05-16T17:18:08.923Z,85
2018-05-16T17:18:40.998Z,85
2018-05-16T17:19:13.101Z,85
2018-05-16T17:19:45.203Z,85
2018-05-16T17:20:17.532Z,85
2018-05-16T17:22:09.209Z,75
2018-05-16T17:22:41.331Z,75
2018-05-16T17:23:13.425Z,75
2018-05-16T17:23:45.519Z,80
2018-05-16T17:24:17.620Z,80
2018-05-16T17:24:49.724Z,80
2018-05-16T17:25:21.814Z,80
2018-05-16T17:25:53.882Z,80
2018-05-16T17:26:25.961Z,80
2018-05-16T17:28:17.710Z,80
2018-05-16T17:28:49.789Z,80
2018-05-16T17:29:21.896Z,80
2018-05-16T17:29:53.999Z,80
2018-05-16T17:30:26.123Z,80
2018-05-16T17:30:58.161Z,80
2018-05-16T17:32:49.570Z,85
2018-05-16T17:33:21.658Z,85
2018-05-16T17:33:53.763Z,90
2018-05-16T17:34:25.866Z,90
2018-05-16T17:34:57.969Z,90
2018-05-16T17:35:30.075Z,95
2018-05-16T17:36:02.180Z,95
2018-05-16T17:37:53.712Z,95
2018-05-16T17:38:25.763Z,90
2018-05-16T17:40:17.387Z,90
2018-05-16T17:40:49.463Z,90
2018-05-16T17:41:21.564Z,90
2018-05-16T17:41:53.645Z,90
2018-05-16T17:42:25.745Z,90
2018-05-16T17:42:57.852Z,90
2018-05-16T17:43:29.939Z,90
2018-05-16T17:44:02.048Z,85
2018-05-16T17:45:53.803Z,80
2018-05-16T17:46:25.904Z,80
2018-05-16T17:46:57.999Z,80
2018-05-16T17:47:34.053Z,80
2018-05-16T17:48:06.130Z,80
2018-05-16T17:48:38.234Z,80
2018-05-16T17:49:10.335Z,85
2018-05-16T17:49:42.435Z,85
2018-05-16T17:50:14.528Z,85
2018-05-16T17:50:46.640Z,85
2018-05-16T17:51:18.705Z,85
2018-05-16T17:51:50.799Z,85
2018-05-16T17:52:22.874Z,80
2018-05-16T17:52:54.947Z,80
2018-05-16T17:53:27.041Z,80
2018-05-16T17:53:59.134Z,80
2018-05-16T17:54:31.240Z,80
2018-05-16T17:55:03.380Z,80
2018-05-16T17:55:35.481Z,80
2018-05-16T17:56:07.570Z,80
2018-05-16T17:56:39.653Z,80
2018-05-16T17:57:11.758Z,75
2018-05-16T17:57:43.871Z,75
2018-05-16T17:58:15.955Z,75
2018-05-16T17:58:48.022Z,75
2018-05-16T17:59:20.134Z,75
2018-05-16T17:59:52.224Z,75
2018-05-16T18:00:24.325Z,70
2018-05-16T18:02:15.732Z,70
2018-05-16T18:02:47.811Z,65
2018-05-16T18:03:19.912Z,65
2018-05-16T18:03:52.022Z,65
2018-05-16T18:04:24.114Z,65
2018-05-16T18:04:56.224Z,60
2018-05-16T18:05:28.332Z,60
2018-05-16T18:06:00.424Z,60
2018-05-16T18:07:52.122Z,55
2018-05-16T18:08:24.198Z,55
2018-05-16T18:08:56.287Z,55
2018-05-16T18:09:28.373Z,55
2018-05-16T18:10:00.483Z,55
2018-05-16T18:10:32.563Z,55
2018-05-16T18:11:04.664Z,55
2018-05-16T18:11:36.749Z,55
2018-05-16T18:12:08.846Z,55
2018-05-16T18:12:40.903Z,55
2018-05-16T18:13:12.992Z,55
2018-05-16T18:13:45.099Z,55
2018-05-16T18:14:17.196Z,50
2018-05-16T18:14:49.274Z,50
2018-05-16T18:15:21.362Z,50
2018-05-16T18:15:53.470Z,50
2018-05-16T18:16:25.582Z,50
2018-05-16T18:16:57.732Z,50
2018-05-16T18:18:49.340Z,50
2018-05-16T18:19:21.416Z,45
2018-05-16T18:19:53.467Z,45
2018-05-16T18:20:25.539Z,45
2018-05-16T18:22:17.237Z,45
2018-05-16T18:22:49.345Z,45
2018-05-16T18:23:21.450Z,45
2018-05-16T18:23:53.545Z,40
2018-05-16T18:24:25.666Z,40
2018-05-16T18:24:57.750Z,40
2018-05-16T18:25:29.837Z,40
2018-05-16T18:27:21.600Z,35
2018-05-16T18:27:53.684Z,35
2018-05-16T18:28:25.779Z,35
2018-05-16T18:28:57.848Z,35
2018-05-16T18:29:31.938Z,30
2018-05-16T18:30:04.160Z,30
2018-05-16T18:31:55.692Z,25
2018-05-16T18:32:27.835Z,25
2018-05-16T18:32:59.888Z,25
2018-05-16T18:33:31.976Z,25
2018-05-16T18:34:04.058Z,25
2018-05-16T18:34:36.144Z,25
2018-05-16T18:35:08.222Z,20
2018-05-16T18:35:40.269Z,20
2018-05-16T18:36:12.362Z,20
2018-05-16T18:36:44.459Z,20
2018-05-16T18:37:16.553Z,20
2018-05-16T18:37:48.660Z,20
2018-05-16T18:38:20.738Z,20
2018-05-16T18:40:12.259Z,20
2018-05-16T18:40:44.348Z,20
2018-05-16T18:41:16.450Z,15
2018-05-16T18:41:48.552Z,15
2018-05-16T18:43:39.926Z,15
2018-05-16T18:44:12.007Z,15
2018-05-16T18:44:44.086Z,15
2018-05-16T18:45:16.176Z,10
2018-05-16T18:47:07.604Z,10
2018-05-16T18:47:39.701Z,10
2018-05-16T18:48:11.783Z,10
2018-05-16T18:48:43.883Z,10
2018-05-16T18:49:16.019Z,10
2018-05-16T18:49:48.105Z,10
2018-05-16T18:50:20.201Z,10
2018-05-16T18:50:52.284Z,10
2018-05-16T18:51:24.357Z,10
2018-05-16T18:51:56.433Z,10
2018-05-16T18:52:28.519Z,10
2018-05-16T18:53:00.609Z,10
2018-05-16T18:53:32.694Z,10
2018-05-16T18:54:04.788Z,10
2018-05-16T18:54:36.873Z,5
2018-05-16T18:55:08.990Z,5
2018-05-16T18:57:00.699Z,5
2018-05-16T18:58:52.111Z,5
2018-05-16T18:59:24.214Z,5
2018-05-16T18:59:56.298Z,5
2018-05-16T19:00:28.385Z,5
2018-05-16T19:01:00.470Z,5
2018-05-16T19:01:32.539Z,0
2018-05-16T19:02:04.629Z,0
2018-05-16T19:03:56.179Z,0
2018-05-16T19:04:28.271Z,0
2018-05-16T19:05:00.355Z,0
2018-05-16T19:05:32.468Z,0
2018-05-16T19:06:04.530Z,0
2018-05-16T19:06:36.609Z,0
2018-05-16T19:07:08.717Z,0
2018-05-16T19:07:40.812Z,0
2018-05-16T19:08:12.905Z,0
2018-05-16T19:08:45.043Z,0
2018-05-16T19:10:36.779Z,0
2018-05-16T19:11:08.850Z,0
2018-05-16T19:11:40.912Z,0
2018-05-16T19:13:32.365Z,0
2018-05-16T19:14:04.468Z,0
2018-05-16T19:14:36.588Z,0
2018-05-16T19:15:08.682Z,0
2018-05-16T19:15:40.782Z,0
2018-05-16T19:16:12.869Z,0
2018-05-16T19:16:44.976Z,0
2018-05-16T19:17:17.138Z,0
2018-05-16T19:17:49.230Z,0
2018-05-16T19:19:40.955Z,0
2018-05-16T19:20:13.060Z,0
2018-05-16T19:20:45.158Z,0
2018-05-16T19:21:17.253Z,0
2018-05-16T19:21:49.351Z,0
2018-05-16T19:23:40.955Z,0
2018-05-16T19:24:13.048Z,0
2018-05-16T19:24:45.159Z,0
2018-05-16T19:25:17.262Z,0
2018-05-16T19:25:49.357Z,0
2018-05-16T19:26:21.450Z,0
2018-05-16T19:26:53.554Z,0
2018-05-16T19:27:25.641Z,0